sensor_id;sensor_type;location;lat;lon;timestamp;P1;durP1;ratioP1;P2;durP2;ratioP2
34236;SDS011;20501;45.956;13.632;2022-10-31T00:02:19;11.80;;;2.78;;
34236;SDS011;20501;45.956;13.632;2022-10-31T00:04:45;9.50;;;2.63;;
34236;SDS011;20501;45.956;13.632;2022-10-31T00:07:10;8.63;;;2.72;;
34236;SDS011;20501;45.956;13.632;2022-10-31T00:09:35;13.95;;;3.20;;
34236;SDS011;20501;45.956;13.632;2022-10-31T00:12:01;18.73;;;3.25;;
34236;SDS011;20501;45.956;13.632;2022-10-31T00:14:26;9.07;;;2.83;;
34236;SDS011;20501;45.956;13.632;2022-10-31T00:16:52;11.80;;;2.72;;
34236;SDS011;20501;45.956;13.632;2022-10-31T00:19:17;8.25;;;2.75;;
34236;SDS011;20501;45.956;13.632;2022-10-31T00:21:42;10.90;;;2.78;;
34236;SDS011;20501;45.956;13.632;2022-10-31T00:24:08;14.07;;;3.30;;
34236;SDS011;20501;45.956;13.632;2022-10-31T00:26:33;8.88;;;2.97;;
34236;SDS011;20501;45.956;13.632;2022-10-31T00:28:59;9.52;;;2.45;;
34236;SDS011;20501;45.956;13.632;2022-10-31T00:31:25;9.40;;;2.30;;
34236;SDS011;20501;45.956;13.632;2022-10-31T00:33:50;7.45;;;2.40;;
34236;SDS011;20501;45.956;13.632;2022-10-31T00:36:17;9.15;;;2.53;;
34236;SDS011;20501;45.956;13.632;2022-10-31T00:38:44;13.13;;;3.42;;
34236;SDS011;20501;45.956;13.632;2022-10-31T00:41:10;9.82;;;2.63;;
34236;SDS011;20501;45.956;13.632;2022-10-31T00:43:37;8.75;;;2.85;;
34236;SDS011;20501;45.956;13.632;2022-10-31T00:46:02;9.00;;;2.70;;
34236;SDS011;20501;45.956;13.632;2022-10-31T00:48:28;7.82;;;2.50;;
34236;SDS011;20501;45.956;13.632;2022-10-31T00:50:54;7.10;;;2.87;;
34236;SDS011;20501;45.956;13.632;2022-10-31T00:53:19;9.60;;;3.60;;
34236;SDS011;20501;45.956;13.632;2022-10-31T00:55:45;12.00;;;3.63;;
34236;SDS011;20501;45.956;13.632;2022-10-31T00:58:10;9.38;;;3.03;;
34236;SDS011;20501;45.956;13.632;2022-10-31T01:00:36;7.47;;;2.80;;
34236;SDS011;20501;45.956;13.632;2022-10-31T01:03:01;13.52;;;2.80;;
34236;SDS011;20501;45.956;13.632;2022-10-31T01:05:27;5.93;;;2.80;;
34236;SDS011;20501;45.956;13.632;2022-10-31T01:07:52;10.30;;;2.83;;
34236;SDS011;20501;45.956;13.632;2022-10-31T01:10:18;9.02;;;2.97;;
34236;SDS011;20501;45.956;13.632;2022-10-31T01:12:44;6.97;;;2.95;;
34236;SDS011;20501;45.956;13.632;2022-10-31T01:15:12;12.98;;;2.97;;
34236;SDS011;20501;45.956;13.632;2022-10-31T01:17:39;10.60;;;2.33;;
34236;SDS011;20501;45.956;13.632;2022-10-31T01:20:05;7.97;;;2.80;;
34236;SDS011;20501;45.956;13.632;2022-10-31T01:24:57;7.78;;;2.50;;
34236;SDS011;20501;45.956;13.632;2022-10-31T01:27:22;11.48;;;3.45;;
34236;SDS011;20501;45.956;13.632;2022-10-31T01:29:48;9.82;;;2.80;;
34236;SDS011;20501;45.956;13.632;2022-10-31T01:32:13;11.15;;;2.70;;
34236;SDS011;20501;45.956;13.632;2022-10-31T01:34:38;7.93;;;2.20;;
34236;SDS011;20501;45.956;13.632;2022-10-31T01:37:04;7.50;;;2.88;;
34236;SDS011;20501;45.956;13.632;2022-10-31T01:39:29;7.65;;;2.50;;
34236;SDS011;20501;45.956;13.632;2022-10-31T01:41:55;8.82;;;3.28;;
34236;SDS011;20501;45.956;13.632;2022-10-31T01:54:39;15.70;;;2.97;;
34236;SDS011;20501;45.956;13.632;2022-10-31T01:57:08;10.75;;;2.95;;
34236;SDS011;20501;45.956;13.632;2022-10-31T01:59:37;8.35;;;2.42;;
34236;SDS011;20501;45.956;13.632;2022-10-31T02:02:07;9.02;;;3.10;;
34236;SDS011;20501;45.956;13.632;2022-10-31T02:04:33;9.13;;;2.95;;
34236;SDS011;20501;45.956;13.632;2022-10-31T02:07:34;10.48;;;3.00;;
34236;SDS011;20501;45.956;13.632;2022-10-31T02:09:55;9.10;;;2.83;;
34236;SDS011;20501;45.956;13.632;2022-10-31T02:12:22;7.68;;;2.70;;
34236;SDS011;20501;45.956;13.632;2022-10-31T02:14:47;6.85;;;2.63;;
34236;SDS011;20501;45.956;13.632;2022-10-31T02:17:13;8.85;;;3.30;;
34236;SDS011;20501;45.956;13.632;2022-10-31T02:33:39;18.58;;;3.55;;
34236;SDS011;20501;45.956;13.632;2022-10-31T02:36:20;10.27;;;3.35;;
34236;SDS011;20501;45.956;13.632;2022-10-31T02:44:12;7.20;;;2.63;;
34236;SDS011;20501;45.956;13.632;2022-10-31T02:46:50;7.60;;;2.80;;
34236;SDS011;20501;45.956;13.632;2022-10-31T02:51:54;10.52;;;3.15;;
34236;SDS011;20501;45.956;13.632;2022-10-31T02:54:23;10.43;;;3.15;;
34236;SDS011;20501;45.956;13.632;2022-10-31T02:56:51;9.07;;;3.08;;
34236;SDS011;20501;45.956;13.632;2022-10-31T02:59:22;17.15;;;2.75;;
34236;SDS011;20501;45.956;13.632;2022-10-31T03:12:22;15.52;;;2.97;;
34236;SDS011;20501;45.956;13.632;2022-10-31T03:17:29;12.50;;;3.15;;
34236;SDS011;20501;45.956;13.632;2022-10-31T03:20:01;13.93;;;3.00;;
34236;SDS011;20501;45.956;13.632;2022-10-31T03:22:29;7.20;;;3.00;;
34236;SDS011;20501;45.956;13.632;2022-10-31T03:24:56;13.98;;;2.97;;
34236;SDS011;20501;45.956;13.632;2022-10-31T03:27:24;5.82;;;2.75;;
34236;SDS011;20501;45.956;13.632;2022-10-31T03:29:55;10.95;;;2.88;;
34236;SDS011;20501;45.956;13.632;2022-10-31T03:32:27;12.70;;;3.05;;
34236;SDS011;20501;45.956;13.632;2022-10-31T03:34:58;9.63;;;2.88;;
34236;SDS011;20501;45.956;13.632;2022-10-31T03:37:27;10.05;;;2.88;;
34236;SDS011;20501;45.956;13.632;2022-10-31T03:39:54;9.77;;;2.55;;
34236;SDS011;20501;45.956;13.632;2022-10-31T03:42:23;12.07;;;3.00;;
34236;SDS011;20501;45.956;13.632;2022-10-31T03:45:04;11.52;;;2.47;;
34236;SDS011;20501;45.956;13.632;2022-10-31T03:47:34;9.10;;;3.00;;
34236;SDS011;20501;45.956;13.632;2022-10-31T03:50:02;8.57;;;2.40;;
34236;SDS011;20501;45.956;13.632;2022-10-31T03:52:33;12.20;;;2.80;;
34236;SDS011;20501;45.956;13.632;2022-10-31T03:55:05;12.95;;;3.25;;
34236;SDS011;20501;45.956;13.632;2022-10-31T04:00:13;6.97;;;2.65;;
34236;SDS011;20501;45.956;13.632;2022-10-31T04:02:45;8.70;;;2.85;;
34236;SDS011;20501;45.956;13.632;2022-10-31T04:05:32;10.63;;;2.72;;
34236;SDS011;20501;45.956;13.632;2022-10-31T04:08:00;14.52;;;3.70;;
34236;SDS011;20501;45.956;13.632;2022-10-31T04:10:28;8.10;;;2.80;;
34236;SDS011;20501;45.956;13.632;2022-10-31T04:12:57;10.23;;;3.15;;
34236;SDS011;20501;45.956;13.632;2022-10-31T04:15:28;10.07;;;3.45;;
34236;SDS011;20501;45.956;13.632;2022-10-31T04:17:56;7.65;;;2.90;;
34236;SDS011;20501;45.956;13.632;2022-10-31T04:20:34;5.55;;;2.67;;
34236;SDS011;20501;45.956;13.632;2022-10-31T04:23:03;6.75;;;2.60;;
34236;SDS011;20501;45.956;13.632;2022-10-31T04:25:29;9.93;;;2.90;;
34236;SDS011;20501;45.956;13.632;2022-10-31T04:27:54;6.95;;;2.90;;
34236;SDS011;20501;45.956;13.632;2022-10-31T04:30:20;13.68;;;2.85;;
34236;SDS011;20501;45.956;13.632;2022-10-31T04:32:46;8.20;;;2.97;;
34236;SDS011;20501;45.956;13.632;2022-10-31T04:35:11;16.63;;;3.65;;
34236;SDS011;20501;45.956;13.632;2022-10-31T04:37:37;7.93;;;2.45;;
34236;SDS011;20501;45.956;13.632;2022-10-31T04:40:02;7.78;;;2.97;;
34236;SDS011;20501;45.956;13.632;2022-10-31T04:42:28;7.45;;;2.65;;
34236;SDS011;20501;45.956;13.632;2022-10-31T04:44:55;8.63;;;2.83;;
34236;SDS011;20501;45.956;13.632;2022-10-31T04:47:20;9.30;;;2.45;;
34236;SDS011;20501;45.956;13.632;2022-10-31T04:49:45;13.57;;;3.00;;
34236;SDS011;20501;45.956;13.632;2022-10-31T04:52:11;14.93;;;3.15;;
34236;SDS011;20501;45.956;13.632;2022-10-31T04:54:36;11.43;;;2.72;;
34236;SDS011;20501;45.956;13.632;2022-10-31T04:57:02;9.73;;;3.97;;
34236;SDS011;20501;45.956;13.632;2022-10-31T04:59:27;11.13;;;3.10;;
34236;SDS011;20501;45.956;13.632;2022-10-31T05:01:52;5.22;;;2.33;;
34236;SDS011;20501;45.956;13.632;2022-10-31T05:04:18;10.98;;;2.95;;
34236;SDS011;20501;45.956;13.632;2022-10-31T05:06:43;12.82;;;2.83;;
34236;SDS011;20501;45.956;13.632;2022-10-31T05:09:09;9.82;;;2.63;;
34236;SDS011;20501;45.956;13.632;2022-10-31T05:11:34;11.00;;;2.72;;
34236;SDS011;20501;45.956;13.632;2022-10-31T05:14:00;8.65;;;2.53;;
34236;SDS011;20501;45.956;13.632;2022-10-31T05:16:25;9.68;;;3.55;;
34236;SDS011;20501;45.956;13.632;2022-10-31T05:18:50;12.00;;;2.90;;
34236;SDS011;20501;45.956;13.632;2022-10-31T05:21:16;12.50;;;2.88;;
34236;SDS011;20501;45.956;13.632;2022-10-31T05:23:41;11.48;;;2.70;;
34236;SDS011;20501;45.956;13.632;2022-10-31T05:26:07;9.85;;;2.60;;
34236;SDS011;20501;45.956;13.632;2022-10-31T05:28:32;6.93;;;2.75;;
34236;SDS011;20501;45.956;13.632;2022-10-31T05:30:57;10.73;;;2.72;;
34236;SDS011;20501;45.956;13.632;2022-10-31T05:33:23;11.27;;;2.60;;
34236;SDS011;20501;45.956;13.632;2022-10-31T05:35:48;13.55;;;2.92;;
34236;SDS011;20501;45.956;13.632;2022-10-31T05:38:14;11.23;;;2.65;;
34236;SDS011;20501;45.956;13.632;2022-10-31T05:40:39;8.90;;;2.63;;
34236;SDS011;20501;45.956;13.632;2022-10-31T05:43:04;7.53;;;2.40;;
34236;SDS011;20501;45.956;13.632;2022-10-31T05:45:30;13.10;;;3.08;;
34236;SDS011;20501;45.956;13.632;2022-10-31T05:47:56;6.72;;;2.35;;
34236;SDS011;20501;45.956;13.632;2022-10-31T05:50:23;8.13;;;2.95;;
34236;SDS011;20501;45.956;13.632;2022-10-31T05:52:58;9.65;;;3.30;;
34236;SDS011;20501;45.956;13.632;2022-10-31T05:55:25;9.27;;;2.97;;
34236;SDS011;20501;45.956;13.632;2022-10-31T05:57:51;12.68;;;4.22;;
34236;SDS011;20501;45.956;13.632;2022-10-31T06:00:18;7.32;;;2.25;;
34236;SDS011;20501;45.956;13.632;2022-10-31T06:02:44;13.43;;;3.60;;
34236;SDS011;20501;45.956;13.632;2022-10-31T06:05:09;10.43;;;2.72;;
34236;SDS011;20501;45.956;13.632;2022-10-31T06:07:35;12.27;;;2.67;;
34236;SDS011;20501;45.956;13.632;2022-10-31T06:10:02;10.57;;;2.95;;
34236;SDS011;20501;45.956;13.632;2022-10-31T06:12:30;16.13;;;3.75;;
34236;SDS011;20501;45.956;13.632;2022-10-31T06:14:55;8.27;;;2.78;;
34236;SDS011;20501;45.956;13.632;2022-10-31T06:17:20;8.02;;;2.63;;
34236;SDS011;20501;45.956;13.632;2022-10-31T06:19:46;10.73;;;2.55;;
34236;SDS011;20501;45.956;13.632;2022-10-31T06:22:11;9.93;;;2.90;;
34236;SDS011;20501;45.956;13.632;2022-10-31T06:24:37;7.07;;;2.90;;
34236;SDS011;20501;45.956;13.632;2022-10-31T06:27:03;16.02;;;2.85;;
34236;SDS011;20501;45.956;13.632;2022-10-31T06:29:29;10.38;;;2.85;;
34236;SDS011;20501;45.956;13.632;2022-10-31T06:31:54;7.18;;;2.83;;
34236;SDS011;20501;45.956;13.632;2022-10-31T06:34:20;7.55;;;2.92;;
34236;SDS011;20501;45.956;13.632;2022-10-31T06:36:45;8.93;;;2.80;;
34236;SDS011;20501;45.956;13.632;2022-10-31T06:39:11;7.40;;;2.50;;
34236;SDS011;20501;45.956;13.632;2022-10-31T06:41:37;10.77;;;2.80;;
34236;SDS011;20501;45.956;13.632;2022-10-31T06:44:04;10.02;;;3.13;;
34236;SDS011;20501;45.956;13.632;2022-10-31T06:46:30;15.48;;;2.90;;
34236;SDS011;20501;45.956;13.632;2022-10-31T06:48:56;7.75;;;3.25;;
34236;SDS011;20501;45.956;13.632;2022-10-31T06:51:21;8.55;;;3.22;;
34236;SDS011;20501;45.956;13.632;2022-10-31T06:53:46;10.45;;;2.75;;
34236;SDS011;20501;45.956;13.632;2022-10-31T06:56:12;16.92;;;3.03;;
34236;SDS011;20501;45.956;13.632;2022-10-31T06:58:37;13.85;;;2.60;;
34236;SDS011;20501;45.956;13.632;2022-10-31T07:01:03;9.07;;;2.72;;
34236;SDS011;20501;45.956;13.632;2022-10-31T07:03:28;8.40;;;2.42;;
34236;SDS011;20501;45.956;13.632;2022-10-31T07:05:56;8.95;;;2.35;;
34236;SDS011;20501;45.956;13.632;2022-10-31T07:08:22;14.48;;;3.20;;
34236;SDS011;20501;45.956;13.632;2022-10-31T07:10:52;9.77;;;3.08;;
34236;SDS011;20501;45.956;13.632;2022-10-31T07:13:18;8.75;;;2.42;;
34236;SDS011;20501;45.956;13.632;2022-10-31T07:15:49;12.23;;;3.03;;
34236;SDS011;20501;45.956;13.632;2022-10-31T07:18:15;15.20;;;3.35;;
34236;SDS011;20501;45.956;13.632;2022-10-31T07:20:40;14.25;;;3.50;;
34236;SDS011;20501;45.956;13.632;2022-10-31T07:23:07;21.23;;;3.58;;
34236;SDS011;20501;45.956;13.632;2022-10-31T07:25:34;9.98;;;3.60;;
34236;SDS011;20501;45.956;13.632;2022-10-31T07:27:59;11.30;;;3.10;;
34236;SDS011;20501;45.956;13.632;2022-10-31T07:30:25;8.15;;;2.50;;
34236;SDS011;20501;45.956;13.632;2022-10-31T07:32:50;10.55;;;2.60;;
34236;SDS011;20501;45.956;13.632;2022-10-31T07:35:17;12.48;;;2.83;;
34236;SDS011;20501;45.956;13.632;2022-10-31T07:37:47;17.15;;;2.53;;
34236;SDS011;20501;45.956;13.632;2022-10-31T07:40:13;25.95;;;3.47;;
34236;SDS011;20501;45.956;13.632;2022-10-31T07:42:39;14.45;;;3.08;;
34236;SDS011;20501;45.956;13.632;2022-10-31T07:45:08;7.35;;;2.53;;
34236;SDS011;20501;45.956;13.632;2022-10-31T07:47:45;11.10;;;3.00;;
34236;SDS011;20501;45.956;13.632;2022-10-31T07:50:25;13.18;;;2.53;;
34236;SDS011;20501;45.956;13.632;2022-10-31T07:53:02;10.55;;;2.50;;
34236;SDS011;20501;45.956;13.632;2022-10-31T07:55:32;8.35;;;2.65;;
34236;SDS011;20501;45.956;13.632;2022-10-31T07:58:02;6.90;;;2.15;;
34236;SDS011;20501;45.956;13.632;2022-10-31T08:00:29;8.32;;;2.33;;
34236;SDS011;20501;45.956;13.632;2022-10-31T08:02:56;7.25;;;2.80;;
34236;SDS011;20501;45.956;13.632;2022-10-31T08:05:25;12.55;;;3.55;;
34236;SDS011;20501;45.956;13.632;2022-10-31T08:07:51;13.18;;;2.13;;
34236;SDS011;20501;45.956;13.632;2022-10-31T08:10:16;9.45;;;2.42;;
34236;SDS011;20501;45.956;13.632;2022-10-31T08:12:42;8.18;;;2.45;;
34236;SDS011;20501;45.956;13.632;2022-10-31T08:15:07;9.98;;;2.70;;
34236;SDS011;20501;45.956;13.632;2022-10-31T08:17:36;8.02;;;2.45;;
34236;SDS011;20501;45.956;13.632;2022-10-31T08:20:03;12.20;;;2.80;;
34236;SDS011;20501;45.956;13.632;2022-10-31T08:24:55;12.73;;;2.20;;
34236;SDS011;20501;45.956;13.632;2022-10-31T08:27:20;13.73;;;3.33;;
34236;SDS011;20501;45.956;13.632;2022-10-31T08:29:45;14.63;;;2.53;;
34236;SDS011;20501;45.956;13.632;2022-10-31T08:32:11;6.25;;;2.38;;
34236;SDS011;20501;45.956;13.632;2022-10-31T08:34:36;18.02;;;2.70;;
34236;SDS011;20501;45.956;13.632;2022-10-31T08:37:02;11.23;;;2.53;;
34236;SDS011;20501;45.956;13.632;2022-10-31T08:39:27;11.15;;;2.53;;
34236;SDS011;20501;45.956;13.632;2022-10-31T08:41:53;12.38;;;2.83;;
34236;SDS011;20501;45.956;13.632;2022-10-31T08:44:18;9.73;;;2.90;;
34236;SDS011;20501;45.956;13.632;2022-10-31T08:46:43;10.38;;;2.83;;
34236;SDS011;20501;45.956;13.632;2022-10-31T08:49:09;12.20;;;2.80;;
34236;SDS011;20501;45.956;13.632;2022-10-31T08:51:34;14.25;;;3.28;;
34236;SDS011;20501;45.956;13.632;2022-10-31T08:54:00;8.98;;;2.65;;
34236;SDS011;20501;45.956;13.632;2022-10-31T08:56:25;8.35;;;2.17;;
34236;SDS011;20501;45.956;13.632;2022-10-31T08:58:52;13.60;;;2.83;;
34236;SDS011;20501;45.956;13.632;2022-10-31T09:01:18;8.55;;;2.33;;
34236;SDS011;20501;45.956;13.632;2022-10-31T09:03:43;8.45;;;2.38;;
34236;SDS011;20501;45.956;13.632;2022-10-31T09:06:09;9.75;;;2.67;;
34236;SDS011;20501;45.956;13.632;2022-10-31T09:08:34;8.07;;;2.80;;
34236;SDS011;20501;45.956;13.632;2022-10-31T09:11:01;8.88;;;2.55;;
34236;SDS011;20501;45.956;13.632;2022-10-31T09:13:27;10.77;;;2.53;;
34236;SDS011;20501;45.956;13.632;2022-10-31T09:15:52;17.55;;;3.00;;
34236;SDS011;20501;45.956;13.632;2022-10-31T09:18:20;8.73;;;2.60;;
34236;SDS011;20501;45.956;13.632;2022-10-31T09:20:47;11.35;;;2.42;;
34236;SDS011;20501;45.956;13.632;2022-10-31T09:23:15;11.85;;;2.47;;
34236;SDS011;20501;45.956;13.632;2022-10-31T09:25:41;8.90;;;2.35;;
34236;SDS011;20501;45.956;13.632;2022-10-31T09:28:08;9.98;;;2.53;;
34236;SDS011;20501;45.956;13.632;2022-10-31T09:30:35;12.45;;;3.75;;
34236;SDS011;20501;45.956;13.632;2022-10-31T09:33:02;8.00;;;2.75;;
34236;SDS011;20501;45.956;13.632;2022-10-31T09:35:29;8.55;;;2.65;;
34236;SDS011;20501;45.956;13.632;2022-10-31T09:37:58;9.13;;;2.20;;
34236;SDS011;20501;45.956;13.632;2022-10-31T09:45:37;14.30;;;3.10;;
34236;SDS011;20501;45.956;13.632;2022-10-31T09:48:14;15.73;;;2.72;;
34236;SDS011;20501;45.956;13.632;2022-10-31T09:50:49;12.25;;;2.80;;
34236;SDS011;20501;45.956;13.632;2022-10-31T09:55:50;11.43;;;2.50;;
34236;SDS011;20501;45.956;13.632;2022-10-31T09:58:20;10.77;;;2.78;;
34236;SDS011;20501;45.956;13.632;2022-10-31T10:00:49;9.18;;;2.60;;
34236;SDS011;20501;45.956;13.632;2022-10-31T10:08:32;9.50;;;2.47;;
34236;SDS011;20501;45.956;13.632;2022-10-31T10:30:37;20.88;;;6.35;;
34236;SDS011;20501;45.956;13.632;2022-10-31T10:33:10;35.30;;;11.93;;
34236;SDS011;20501;45.956;13.632;2022-10-31T10:35:41;32.70;;;10.52;;
34236;SDS011;20501;45.956;13.632;2022-10-31T10:38:17;36.33;;;12.02;;
34236;SDS011;20501;45.956;13.632;2022-10-31T10:40:55;43.65;;;16.80;;
34236;SDS011;20501;45.956;13.632;2022-10-31T10:43:24;69.63;;;30.73;;
34236;SDS011;20501;45.956;13.632;2022-10-31T10:51:32;55.83;;;22.70;;
34236;SDS011;20501;45.956;13.632;2022-10-31T10:59:30;57.80;;;20.65;;
34236;SDS011;20501;45.956;13.632;2022-10-31T11:01:56;21.77;;;10.00;;
34236;SDS011;20501;45.956;13.632;2022-10-31T11:04:33;24.15;;;8.32;;
34236;SDS011;20501;45.956;13.632;2022-10-31T11:07:02;24.65;;;6.40;;
34236;SDS011;20501;45.956;13.632;2022-10-31T11:09:32;15.43;;;5.57;;
34236;SDS011;20501;45.956;13.632;2022-10-31T11:11:59;17.73;;;4.72;;
34236;SDS011;20501;45.956;13.632;2022-10-31T11:14:31;18.48;;;6.35;;
34236;SDS011;20501;45.956;13.632;2022-10-31T11:22:36;17.00;;;4.30;;
34236;SDS011;20501;45.956;13.632;2022-10-31T11:25:14;15.20;;;5.10;;
34236;SDS011;20501;45.956;13.632;2022-10-31T11:27:58;18.85;;;5.82;;
34236;SDS011;20501;45.956;13.632;2022-10-31T11:30:35;12.38;;;4.03;;
34236;SDS011;20501;45.956;13.632;2022-10-31T11:33:44;15.13;;;4.00;;
34236;SDS011;20501;45.956;13.632;2022-10-31T11:36:13;11.82;;;3.22;;
34236;SDS011;20501;45.956;13.632;2022-10-31T11:38:48;9.55;;;3.60;;
34236;SDS011;20501;45.956;13.632;2022-10-31T11:41:15;13.45;;;2.90;;
34236;SDS011;20501;45.956;13.632;2022-10-31T11:43:54;10.40;;;3.60;;
34236;SDS011;20501;45.956;13.632;2022-10-31T11:48:58;12.95;;;3.00;;
34236;SDS011;20501;45.956;13.632;2022-10-31T11:51:24;8.23;;;2.55;;
34236;SDS011;20501;45.956;13.632;2022-10-31T11:53:54;8.73;;;2.88;;
34236;SDS011;20501;45.956;13.632;2022-10-31T11:56:23;14.23;;;3.22;;
34236;SDS011;20501;45.956;13.632;2022-10-31T11:58:56;12.93;;;3.28;;
34236;SDS011;20501;45.956;13.632;2022-10-31T12:01:27;10.50;;;2.75;;
34236;SDS011;20501;45.956;13.632;2022-10-31T12:03:59;6.93;;;2.80;;
34236;SDS011;20501;45.956;13.632;2022-10-31T12:06:33;10.93;;;3.40;;
34236;SDS011;20501;45.956;13.632;2022-10-31T12:09:01;11.50;;;2.80;;
34236;SDS011;20501;45.956;13.632;2022-10-31T12:16:28;13.55;;;2.85;;
34236;SDS011;20501;45.956;13.632;2022-10-31T12:19:05;10.07;;;2.88;;
34236;SDS011;20501;45.956;13.632;2022-10-31T12:24:25;20.67;;;3.20;;
34236;SDS011;20501;45.956;13.632;2022-10-31T12:50:12;10.10;;;2.70;;
34236;SDS011;20501;45.956;13.632;2022-10-31T12:53:04;7.05;;;2.35;;
34236;SDS011;20501;45.956;13.632;2022-10-31T12:58:32;10.10;;;2.75;;
34236;SDS011;20501;45.956;13.632;2022-10-31T13:01:11;8.98;;;2.90;;
34236;SDS011;20501;45.956;13.632;2022-10-31T13:06:30;8.40;;;2.63;;
34236;SDS011;20501;45.956;13.632;2022-10-31T13:09:04;8.82;;;2.60;;
34236;SDS011;20501;45.956;13.632;2022-10-31T13:11:39;6.40;;;2.40;;
34236;SDS011;20501;45.956;13.632;2022-10-31T13:14:20;8.15;;;2.67;;
34236;SDS011;20501;45.956;13.632;2022-10-31T13:16:52;8.18;;;2.72;;
34236;SDS011;20501;45.956;13.632;2022-10-31T13:19:25;10.40;;;2.97;;
34236;SDS011;20501;45.956;13.632;2022-10-31T13:24:41;10.77;;;2.72;;
34236;SDS011;20501;45.956;13.632;2022-10-31T13:27:41;12.48;;;3.13;;
34236;SDS011;20501;45.956;13.632;2022-10-31T13:30:17;9.10;;;3.20;;
34236;SDS011;20501;45.956;13.632;2022-10-31T13:35:22;7.72;;;2.58;;
34236;SDS011;20501;45.956;13.632;2022-10-31T13:38:04;6.60;;;2.70;;
34236;SDS011;20501;45.956;13.632;2022-10-31T13:40:48;9.15;;;3.40;;
34236;SDS011;20501;45.956;13.632;2022-10-31T13:45:56;9.13;;;3.10;;
34236;SDS011;20501;45.956;13.632;2022-10-31T13:50:57;13.68;;;3.20;;
34236;SDS011;20501;45.956;13.632;2022-10-31T13:58:38;9.52;;;3.05;;
34236;SDS011;20501;45.956;13.632;2022-10-31T14:03:45;12.25;;;2.78;;
34236;SDS011;20501;45.956;13.632;2022-10-31T14:06:12;11.88;;;3.20;;
34236;SDS011;20501;45.956;13.632;2022-10-31T14:08:41;6.18;;;2.40;;
34236;SDS011;20501;45.956;13.632;2022-10-31T14:11:24;11.37;;;3.57;;
34236;SDS011;20501;45.956;13.632;2022-10-31T14:13:52;8.57;;;2.75;;
34236;SDS011;20501;45.956;13.632;2022-10-31T14:16:25;12.02;;;3.63;;
34236;SDS011;20501;45.956;13.632;2022-10-31T14:19:12;9.98;;;2.72;;
34236;SDS011;20501;45.956;13.632;2022-10-31T14:21:44;9.27;;;3.30;;
34236;SDS011;20501;45.956;13.632;2022-10-31T14:26:52;10.65;;;2.97;;
34236;SDS011;20501;45.956;13.632;2022-10-31T14:32:04;9.63;;;2.95;;
34236;SDS011;20501;45.956;13.632;2022-10-31T14:34:41;12.55;;;3.60;;
34236;SDS011;20501;45.956;13.632;2022-10-31T14:42:33;13.93;;;4.40;;
34236;SDS011;20501;45.956;13.632;2022-10-31T14:45:35;8.43;;;2.95;;
34236;SDS011;20501;45.956;13.632;2022-10-31T14:48:16;10.35;;;2.78;;
34236;SDS011;20501;45.956;13.632;2022-10-31T14:51:00;10.20;;;3.63;;
34236;SDS011;20501;45.956;13.632;2022-10-31T14:53:35;10.48;;;3.35;;
34236;SDS011;20501;45.956;13.632;2022-10-31T14:56:09;13.15;;;3.38;;
34236;SDS011;20501;45.956;13.632;2022-10-31T14:58:40;11.82;;;3.17;;
34236;SDS011;20501;45.956;13.632;2022-10-31T15:01:19;10.27;;;4.05;;
34236;SDS011;20501;45.956;13.632;2022-10-31T15:03:48;6.82;;;2.97;;
34236;SDS011;20501;45.956;13.632;2022-10-31T15:06:15;7.53;;;3.63;;
34236;SDS011;20501;45.956;13.632;2022-10-31T15:08:47;11.27;;;3.55;;
34236;SDS011;20501;45.956;13.632;2022-10-31T15:11:16;15.63;;;4.10;;
34236;SDS011;20501;45.956;13.632;2022-10-31T15:13:47;16.67;;;3.47;;
34236;SDS011;20501;45.956;13.632;2022-10-31T15:16:18;12.15;;;4.05;;
34236;SDS011;20501;45.956;13.632;2022-10-31T15:18:46;8.35;;;3.55;;
34236;SDS011;20501;45.956;13.632;2022-10-31T15:21:15;7.75;;;3.55;;
34236;SDS011;20501;45.956;13.632;2022-10-31T15:23:42;12.82;;;3.60;;
34236;SDS011;20501;45.956;13.632;2022-10-31T15:26:11;6.82;;;3.17;;
34236;SDS011;20501;45.956;13.632;2022-10-31T15:28:43;11.18;;;3.63;;
34236;SDS011;20501;45.956;13.632;2022-10-31T15:31:13;8.48;;;2.53;;
34236;SDS011;20501;45.956;13.632;2022-10-31T15:33:42;9.40;;;3.42;;
34236;SDS011;20501;45.956;13.632;2022-10-31T15:36:21;7.25;;;3.50;;
34236;SDS011;20501;45.956;13.632;2022-10-31T15:38:48;9.15;;;4.05;;
34236;SDS011;20501;45.956;13.632;2022-10-31T15:41:57;12.88;;;4.10;;
34236;SDS011;20501;45.956;13.632;2022-10-31T15:44:24;15.98;;;4.40;;
34236;SDS011;20501;45.956;13.632;2022-10-31T15:47:01;11.88;;;4.38;;
34236;SDS011;20501;45.956;13.632;2022-10-31T15:49:34;6.53;;;2.90;;
34236;SDS011;20501;45.956;13.632;2022-10-31T15:52:03;10.00;;;5.18;;
34236;SDS011;20501;45.956;13.632;2022-10-31T15:54:40;13.07;;;4.28;;
34236;SDS011;20501;45.956;13.632;2022-10-31T15:57:11;8.05;;;3.63;;
34236;SDS011;20501;45.956;13.632;2022-10-31T15:59:37;10.32;;;4.03;;
34236;SDS011;20501;45.956;13.632;2022-10-31T16:02:11;7.65;;;3.10;;
34236;SDS011;20501;45.956;13.632;2022-10-31T16:04:47;15.90;;;4.20;;
34236;SDS011;20501;45.956;13.632;2022-10-31T16:07:15;12.93;;;4.40;;
34236;SDS011;20501;45.956;13.632;2022-10-31T16:09:56;12.07;;;3.60;;
34236;SDS011;20501;45.956;13.632;2022-10-31T16:12:33;11.10;;;3.60;;
34236;SDS011;20501;45.956;13.632;2022-10-31T16:15:01;10.77;;;3.65;;
34236;SDS011;20501;45.956;13.632;2022-10-31T16:17:28;10.30;;;3.17;;
34236;SDS011;20501;45.956;13.632;2022-10-31T16:19:58;7.95;;;3.00;;
34236;SDS011;20501;45.956;13.632;2022-10-31T16:22:32;6.60;;;3.67;;
34236;SDS011;20501;45.956;13.632;2022-10-31T16:25:13;6.53;;;2.92;;
34236;SDS011;20501;45.956;13.632;2022-10-31T16:27:50;8.68;;;3.05;;
34236;SDS011;20501;45.956;13.632;2022-10-31T16:33:01;8.68;;;3.22;;
34236;SDS011;20501;45.956;13.632;2022-10-31T16:35:28;11.10;;;3.63;;
34236;SDS011;20501;45.956;13.632;2022-10-31T16:37:58;8.60;;;4.03;;
34236;SDS011;20501;45.956;13.632;2022-10-31T16:40:23;4.78;;;2.70;;
34236;SDS011;20501;45.956;13.632;2022-10-31T16:42:49;8.30;;;3.75;;
34236;SDS011;20501;45.956;13.632;2022-10-31T16:45:17;15.27;;;6.47;;
34236;SDS011;20501;45.956;13.632;2022-10-31T16:47:44;11.43;;;3.22;;
34236;SDS011;20501;45.956;13.632;2022-10-31T16:50:13;6.80;;;2.58;;
34236;SDS011;20501;45.956;13.632;2022-10-31T16:52:42;10.27;;;3.45;;
34236;SDS011;20501;45.956;13.632;2022-10-31T16:55:10;6.72;;;2.67;;
34236;SDS011;20501;45.956;13.632;2022-10-31T16:57:38;5.68;;;2.58;;
34236;SDS011;20501;45.956;13.632;2022-10-31T17:00:06;7.88;;;3.47;;
34236;SDS011;20501;45.956;13.632;2022-10-31T17:02:32;5.72;;;2.80;;
34236;SDS011;20501;45.956;13.632;2022-10-31T17:04:57;4.65;;;2.60;;
34236;SDS011;20501;45.956;13.632;2022-10-31T17:07:23;11.20;;;4.32;;
34236;SDS011;20501;45.956;13.632;2022-10-31T17:09:48;5.97;;;2.85;;
34236;SDS011;20501;45.956;13.632;2022-10-31T17:12:15;12.98;;;5.82;;
34236;SDS011;20501;45.956;13.632;2022-10-31T17:14:46;11.27;;;5.00;;
34236;SDS011;20501;45.956;13.632;2022-10-31T17:17:15;10.77;;;3.90;;
34236;SDS011;20501;45.956;13.632;2022-10-31T17:19:40;15.38;;;5.43;;
34236;SDS011;20501;45.956;13.632;2022-10-31T17:22:07;23.48;;;9.90;;
34236;SDS011;20501;45.956;13.632;2022-10-31T17:24:37;20.17;;;13.93;;
34236;SDS011;20501;45.956;13.632;2022-10-31T17:27:02;11.05;;;5.13;;
34236;SDS011;20501;45.956;13.632;2022-10-31T17:29:27;11.35;;;6.07;;
34236;SDS011;20501;45.956;13.632;2022-10-31T17:31:53;10.85;;;5.68;;
34236;SDS011;20501;45.956;13.632;2022-10-31T17:34:18;10.13;;;5.63;;